^^
Your Local Weather - Clay, NY Station Historical Data
Daily Summary for April 3, 2017 Units:  English    Metric   Both
« Previous Day
Next Day »
Daily Weekly Monthly Yearly Custom
  High: Low: Average:
Temperature: 59.2 °F 32.8 °F 46.6 °F
Dew Point: 42.1 °F 30.1 °F 35.2 °F
Humidity: 91% 44% 67%
Wind Speed: 7.0mph 0.0mph 2.2mph
Wind Gust: 13.0mph - -
Wind- - East
Pressure: 30.06 in 29.65 in -
Precipitation: 0.03 in    
Historical Graphs
 
 
Tabular Data for April 3, 2017
Time Temperature Dew Point Pressure Wind Wind Speed Wind Gust Humidity Rainfall Rate (Hourly) solar
00:02 40.3 °F 33.3 °F 30.06 in Calm     76% 0.00 in 0 W/m2
00:08 40.2 °F 32.9 °F 30.05 in Calm     75% 0.00 in 0 W/m2
00:14 40.2 °F 32.9 °F 30.05 in Calm     75% 0.00 in 0 W/m2
00:20 40.1 °F 33.1 °F 30.05 in Calm     76% 0.00 in 0 W/m2
00:26 40.0 °F 34.0 °F 30.06 in Calm     79% 0.00 in 0 W/m2
00:32 39.7 °F 33.7 °F 30.06 in Calm     79% 0.00 in 0 W/m2
00:38 39.5 °F 33.8 °F 30.06 in Calm     80% 0.00 in 0 W/m2
00:44 39.2 °F 33.9 °F 30.06 in Calm     81% 0.00 in 0 W/m2
00:50 38.9 °F 33.6 °F 30.06 in Calm     81% 0.00 in 0 W/m2
00:56 38.5 °F 33.5 °F 30.06 in Calm     82% 0.00 in 0 W/m2
01:02 38.0 °F 33.0 °F 30.06 in Calm     82% 0.00 in 0 W/m2
01:08 37.7 °F 33.0 °F 30.06 in Calm     83% 0.00 in 0 W/m2
01:14 37.1 °F 32.7 °F 30.05 in Calm     84% 0.00 in 0 W/m2
01:20 36.7 °F 32.6 °F 30.05 in Calm     85% 0.00 in 0 W/m2
01:26 36.4 °F 32.3 °F 30.05 in Calm     85% 0.00 in 0 W/m2
01:32 36.3 °F 32.5 °F 30.05 in Calm     86% 0.00 in 0 W/m2
01:38 36.0 °F 32.2 °F 30.04 in Calm     86% 0.00 in 0 W/m2
01:44 35.8 °F 32.0 °F 30.04 in Calm     86% 0.00 in 0 W/m2
01:50 35.5 °F 31.7 °F 30.04 in Calm     86% 0.00 in 0 W/m2
01:56 35.3 °F 31.8 °F 30.04 in Calm     87% 0.00 in 0 W/m2
02:02 35.1 °F 31.6 °F 30.04 in Calm     87% 0.00 in 0 W/m2
02:08 34.9 °F 31.4 °F 30.04 in Calm     87% 0.00 in 0 W/m2
02:14 34.6 °F 31.1 °F 30.03 in Calm     87% 0.00 in 0 W/m2
02:20 34.3 °F 30.8 °F 30.04 in Calm     87% 0.00 in 0 W/m2
02:25 33.9 °F 30.4 °F 30.03 in Calm     87% 0.00 in 0 W/m2
02:32 33.6 °F 30.1 °F 30.03 in Calm     87% 0.00 in 0 W/m2
02:38 33.6 °F 30.4 °F 30.03 in Calm     88% 0.00 in 0 W/m2
02:44 33.7 °F 30.5 °F 30.03 in Calm     88% 0.00 in 0 W/m2
02:50 33.6 °F 30.4 °F 30.03 in Calm     88% 0.00 in 0 W/m2
02:56 33.7 °F 30.5 °F 30.03 in Calm     88% 0.00 in 0 W/m2
03:02 33.8 °F 30.9 °F 30.02 in Calm     89% 0.00 in 0 W/m2
03:08 33.7 °F 30.8 °F 30.03 in Calm     89% 0.00 in 0 W/m2
03:14 33.5 °F 30.3 °F 30.03 in Calm     88% 0.00 in 0 W/m2
03:20 33.4 °F 30.5 °F 30.02 in Calm     89% 0.00 in 0 W/m2
03:26 33.5 °F 30.6 °F 30.02 in Calm     89% 0.00 in 0 W/m2
03:32 33.5 °F 30.6 °F 30.03 in Calm     89% 0.00 in 0 W/m2
03:38 33.5 °F 30.6 °F 30.02 in Calm     89% 0.00 in 0 W/m2
03:44 33.5 °F 30.6 °F 30.02 in Calm     89% 0.00 in 0 W/m2
03:50 33.5 °F 30.9 °F 30.02 in Calm     90% 0.00 in 0 W/m2
03:56 33.4 °F 30.8 °F 30.02 in Calm     90% 0.00 in 0 W/m2
04:02 33.2 °F 30.6 °F 30.02 in Calm     90% 0.00 in 0 W/m2
04:08 33.1 °F 30.5 °F 30.02 in Calm     90% 0.00 in 0 W/m2
04:14 33.0 °F 30.4 °F 30.02 in Calm     90% 0.00 in 0 W/m2
04:20 33.0 °F 30.4 °F 30.01 in Calm     90% 0.00 in 0 W/m2
04:26 32.9 °F 30.3 °F 30.01 in Calm     90% 0.00 in 0 W/m2
04:32 32.8 °F 30.2 °F 30.01 in Calm     90% 0.00 in 0 W/m2
04:38 32.8 °F 30.2 °F 30.01 in Calm     90% 0.00 in 0 W/m2
04:44 32.8 °F 30.2 °F 30.02 in Calm     90% 0.00 in 0 W/m2
04:50 32.8 °F 30.2 °F 30.02 in Calm     90% 0.00 in 0 W/m2
04:56 32.8 °F 30.2 °F 30.02 in Calm     90% 0.00 in 0 W/m2
05:02 33.1 °F 30.5 °F 30.01 in Calm     90% 0.00 in 0 W/m2
05:08 33.4 °F 31.1 °F 30.01 in Calm     91% 0.00 in 0 W/m2
05:14 33.6 °F 31.3 °F 30.02 in Calm     91% 0.00 in 0 W/m2
05:20 33.8 °F 31.5 °F 30.01 in Calm     91% 0.00 in 0 W/m2
05:26 33.8 °F 31.5 °F 30.02 in Calm     91% 0.00 in 0 W/m2
05:32 33.8 °F 31.5 °F 30.02 in Calm     91% 0.00 in 0 W/m2
05:38 33.8 °F 31.2 °F 30.02 in Calm     90% 0.00 in 0 W/m2
05:44 34.0 °F 31.4 °F 30.03 in Calm   1.0 mph 90% 0.00 in 0 W/m2
05:50 34.1 °F 31.7 °F 30.03 in Calm     91% 0.00 in 0 W/m2
05:56 34.1 °F 31.5 °F 30.03 in Calm     90% 0.00 in 0 W/m2
06:02 34.2 °F 31.6 °F 30.03 in Calm     90% 0.00 in 0 W/m2
06:08 34.3 °F 31.7 °F 30.03 in Calm     90% 0.00 in 0 W/m2
06:14 34.4 °F 31.8 °F 30.03 in Calm     90% 0.00 in 0 W/m2
06:20 34.4 °F 31.8 °F 30.03 in Calm     90% 0.00 in 0 W/m2
06:26 34.5 °F 31.9 °F 30.04 in Calm     90% 0.00 in 0 W/m2
06:32 34.6 °F 32.0 °F 30.05 in Calm     90% 0.00 in 0 W/m2
06:38 34.6 °F 32.0 °F 30.05 in Calm     90% 0.00 in 0 W/m2
06:44 34.6 °F 32.0 °F 30.05 in Calm     90% 0.00 in 0 W/m2
06:50 34.6 °F 32.0 °F 30.05 in Calm     90% 0.00 in 5 W/m2
06:56 34.6 °F 32.0 °F 30.05 in Calm   1.0 mph 90% 0.00 in 9 W/m2
07:02 34.6 °F 32.0 °F 30.05 in Calm     90% 0.00 in 12 W/m2
07:08 34.7 °F 32.1 °F 30.05 in Calm     90% 0.00 in 18 W/m2
07:14 34.8 °F 32.4 °F 30.05 in Calm     91% 0.00 in 19 W/m2
07:20 34.9 °F 32.5 °F 30.05 in Calm     91% 0.00 in 23 W/m2
07:26 35.1 °F 32.7 °F 30.05 in Calm     91% 0.00 in 30 W/m2
07:32 35.3 °F 32.9 °F 30.05 in Calm     91% 0.00 in 35 W/m2
07:38 35.6 °F 33.2 °F 30.05 in Calm   2.0 mph 91% 0.00 in 44 W/m2
07:44 35.8 °F 33.4 °F 30.05 in Calm     91% 0.00 in 56 W/m2
07:50 36.0 °F 33.4 °F 30.06 in Calm     90% 0.00 in 62 W/m2
07:56 36.5 °F 33.8 °F 30.06 in Calm     90% 0.00 in 72 W/m2
08:02 36.8 °F 33.9 °F 30.06 in Calm   1.0 mph 89% 0.00 in 84 W/m2
08:08 37.2 °F 34.0 °F 30.06 in WNW 1.0 mph 1.0 mph 88% 0.00 in 100 W/m2
08:14 37.6 °F 34.1 °F 30.06 in Calm   1.0 mph 87% 0.00 in 118 W/m2
08:20 38.1 °F 34.0 °F 30.06 in Calm     85% 0.00 in 155 W/m2
08:26 38.8 °F 34.4 °F 30.06 in Calm   1.0 mph 84% 0.00 in 134 W/m2
08:32 39.3 °F 34.6 °F 30.06 in SSE 1.0 mph 2.0 mph 83% 0.00 in 111 W/m2
08:38 39.5 °F 34.2 °F 30.06 in SSE 1.0 mph 2.0 mph 81% 0.00 in 105 W/m2
08:44 39.7 °F 34.0 °F 30.06 in Calm   2.0 mph 80% 0.00 in 104 W/m2
08:50 39.9 °F 34.2 °F 30.06 in SSE 1.0 mph 1.0 mph 80% 0.00 in 107 W/m2
08:56 40.1 °F 34.4 °F 30.06 in SSE 1.0 mph 1.0 mph 80% 0.00 in 105 W/m2
09:02 40.3 °F 34.0 °F 30.06 in ENE 1.0 mph 2.0 mph 78% 0.00 in 109 W/m2
09:08 40.5 °F 34.2 °F 30.06 in ENE 1.0 mph 2.0 mph 78% 0.00 in 123 W/m2
09:14 40.6 °F 34.3 °F 30.06 in ENE 1.0 mph 3.0 mph 78% 0.00 in 155 W/m2
09:20 40.8 °F 34.1 °F 30.06 in ENE 2.0 mph 2.0 mph 77% 0.00 in 174 W/m2
09:26 41.3 °F 35.0 °F 30.06 in ENE 1.0 mph 2.0 mph 78% 0.00 in 195 W/m2
09:32 41.5 °F 34.5 °F 30.06 in NE 1.0 mph 3.0 mph 76% 0.00 in 211 W/m2
09:34 41.6 °F 34.6 °F 30.06 in NE 1.0 mph 3.0 mph 76% 0.00 in 218 W/m2
09:40 42.0 °F 35.0 °F 30.05 in NE 2.0 mph 2.0 mph 76% 0.00 in 225 W/m2
09:46 42.4 °F 35.4 °F 30.05 in Calm   2.0 mph 76% 0.00 in 229 W/m2
09:52 42.5 °F 35.1 °F 30.05 in ENE 1.0 mph 1.0 mph 75% 0.00 in 214 W/m2
09:58 42.7 °F 35.3 °F 30.05 in ENE 1.0 mph 2.0 mph 75% 0.00 in 207 W/m2
10:04 42.9 °F 35.9 °F 30.05 in ENE 2.0 mph 3.0 mph 76% 0.00 in 218 W/m2
10:10 43.4 °F 36.3 °F 30.05 in ENE 1.0 mph 2.0 mph 76% 0.00 in 234 W/m2
10:16 43.6 °F 35.9 °F 30.05 in NE 1.0 mph 3.0 mph 74% 0.00 in 255 W/m2
10:22 43.9 °F 35.5 °F 30.05 in ENE 2.0 mph 2.0 mph 72% 0.00 in 281 W/m2
10:28 44.4 °F 35.9 °F 30.04 in NE 1.0 mph 4.0 mph 72% 0.00 in 281 W/m2
10:34 44.9 °F 35.7 °F 30.04 in NNE 1.0 mph 3.0 mph 70% 0.00 in 269 W/m2
10:40 45.3 °F 35.4 °F 30.04 in ENE 2.0 mph 4.0 mph 68% 0.00 in 295 W/m2
10:46 45.7 °F 35.7 °F 30.03 in ENE 2.0 mph 4.0 mph 68% 0.00 in 318 W/m2
10:52 46.2 °F 36.2 °F 30.03 in East 2.0 mph 5.0 mph 68% 0.00 in 339 W/m2
10:58 46.4 °F 36.0 °F 30.03 in NNE 3.0 mph 5.0 mph 67% 0.00 in 360 W/m2
11:04 46.7 °F 35.6 °F 30.03 in ENE 3.0 mph 3.0 mph 65% 0.00 in 418 W/m2
11:10 47.1 °F 35.5 °F 30.03 in East 4.0 mph 4.0 mph 64% 0.00 in 360 W/m2
11:16 47.5 °F 35.5 °F 30.03 in NE 3.0 mph 4.0 mph 63% 0.00 in 353 W/m2
11:22 47.9 °F 35.5 °F 30.03 in ENE 3.0 mph 3.0 mph 62% 0.00 in 415 W/m2
11:28 48.5 °F 36.1 °F 30.02 in North 3.0 mph 4.0 mph 62% 0.00 in 376 W/m2
11:34 49.2 °F 36.3 °F 30.01 in ENE 2.0 mph 3.0 mph 61% 0.00 in 390 W/m2
11:40 49.5 °F 35.8 °F 30.01 in East 3.0 mph 3.0 mph 59% 0.00 in 360 W/m2
11:46 49.7 °F 35.5 °F 30.01 in ENE 2.0 mph 3.0 mph 58% 0.00 in 425 W/m2
11:52 50.2 °F 36.8 °F 30.01 in SE 2.0 mph 2.0 mph 60% 0.00 in 445 W/m2
11:58 50.3 °F 34.3 °F 30.01 in ENE 3.0 mph 5.0 mph 54% 0.00 in 540 W/m2
12:04 50.8 °F 34.7 °F 30.00 in ESE 3.0 mph 4.0 mph 54% 0.00 in 526 W/m2
12:10 51.5 °F 35.9 °F 30.00 in NE 2.0 mph 2.0 mph 55% 0.00 in 490 W/m2
12:16 51.8 °F 35.2 °F 30.00 in SSE 2.0 mph 4.0 mph 53% 0.00 in 503 W/m2
12:22 51.7 °F 34.6 °F 29.99 in East 3.0 mph 4.0 mph 52% 0.00 in 464 W/m2
12:28 52.1 °F 37.3 °F 29.99 in SE 3.0 mph 5.0 mph 57% 0.00 in 378 W/m2
12:34 52.3 °F 36.1 °F 29.99 in SE 3.0 mph 3.0 mph 54% 0.00 in 374 W/m2
12:40 52.7 °F 35.6 °F 29.98 in NE 2.0 mph 3.0 mph 52% 0.00 in 380 W/m2
12:46 53.0 °F 34.8 °F 29.98 in ENE 3.0 mph 5.0 mph 50% 0.00 in 387 W/m2
12:52 53.0 °F 35.3 °F 29.98 in ESE 3.0 mph 4.0 mph 51% 0.00 in 424 W/m2
12:58 53.7 °F 35.5 °F 29.98 in ESE 2.0 mph 4.0 mph 50% 0.00 in 417 W/m2
13:04 53.7 °F 35.0 °F 29.97 in ENE 3.0 mph 3.0 mph 49% 0.00 in 524 W/m2
13:10 54.6 °F 35.8 °F 29.97 in ESE 3.0 mph 3.0 mph 49% 0.00 in 626 W/m2
13:16 55.5 °F 36.6 °F 29.96 in ESE 3.0 mph 7.0 mph 49% 0.00 in 744 W/m2
13:22 55.5 °F 37.1 °F 29.96 in East 4.0 mph 6.0 mph 50% 0.00 in 540 W/m2
13:28 55.6 °F 35.7 °F 29.95 in ENE 3.0 mph 6.0 mph 47% 0.00 in 643 W/m2
13:34 56.4 °F 35.9 °F 29.95 in NE 3.0 mph 4.0 mph 46% 0.00 in 452 W/m2
13:40 56.4 °F 36.9 °F 29.95 in ENE 3.0 mph 4.0 mph 48% 0.00 in 455 W/m2
13:46 56.2 °F 35.7 °F 29.95 in NE 3.0 mph 4.0 mph 46% 0.00 in 373 W/m2
13:52 56.2 °F 36.8 °F 29.95 in NE 3.0 mph 4.0 mph 48% 0.00 in 338 W/m2
13:58 55.1 °F 36.3 °F 29.95 in NNE 3.0 mph 4.0 mph 49% 0.00 in 301 W/m2
14:04 54.3 °F 37.0 °F 29.93 in East 4.0 mph 6.0 mph 52% 0.00 in 299 W/m2
14:10 54.0 °F 37.2 °F 29.93 in ENE 4.0 mph 4.0 mph 53% 0.00 in 339 W/m2
14:16 54.3 °F 36.5 °F 29.92 in NE 3.0 mph 4.0 mph 51% 0.00 in 373 W/m2
14:22 54.7 °F 36.4 °F 29.92 in ENE 3.0 mph 7.0 mph 50% 0.00 in 397 W/m2
14:28 55.2 °F 37.4 °F 29.92 in NE 4.0 mph 7.0 mph 51% 0.00 in 448 W/m2
14:34 55.4 °F 36.0 °F 29.91 in East 3.0 mph 6.0 mph 48% 0.00 in 434 W/m2
14:40 55.5 °F 36.6 °F 29.91 in NE 4.0 mph 4.0 mph 49% 0.00 in 464 W/m2
14:46 55.7 °F 37.8 °F 29.91 in ENE 4.0 mph 5.0 mph 51% 0.00 in 378 W/m2
14:52 55.9 °F 37.5 °F 29.90 in NNE 5.0 mph 5.0 mph 50% 0.00 in 452 W/m2
14:58 56.1 °F 37.7 °F 29.89 in NE 5.0 mph 5.0 mph 50% 0.00 in 378 W/m2
15:04 56.2 °F 37.3 °F 29.88 in East 5.0 mph 10.0 mph 49% 0.00 in 290 W/m2
15:10 56.4 °F 37.5 °F 29.89 in East 5.0 mph 5.0 mph 49% 0.00 in 415 W/m2
15:16 56.4 °F 36.9 °F 29.87 in ENE 5.0 mph 5.0 mph 48% 0.00 in 313 W/m2
15:22 56.4 °F 36.9 °F 29.87 in NNE 5.0 mph 5.0 mph 48% 0.00 in 299 W/m2
15:28 56.9 °F 37.9 °F 29.87 in ESE 3.0 mph 5.0 mph 49% 0.00 in 315 W/m2
15:34 57.1 °F 38.1 °F 29.86 in East 3.0 mph 7.0 mph 49% 0.00 in 396 W/m2
15:40 57.0 °F 37.5 °F 29.86 in NNE 4.0 mph 7.0 mph 48% 0.00 in 308 W/m2
15:46 56.7 °F 36.7 °F 29.85 in East 5.0 mph 10.0 mph 47% 0.00 in 246 W/m2
15:52 56.6 °F 37.6 °F 29.85 in East 6.0 mph 6.0 mph 49% 0.00 in 272 W/m2
15:58 57.4 °F 39.4 °F 29.85 in NE 4.0 mph 6.0 mph 51% 0.00 in 408 W/m2
16:04 57.8 °F 37.1 °F 29.84 in NE 4.0 mph 8.0 mph 46% 0.00 in 316 W/m2
16:10 57.4 °F 36.8 °F 29.84 in ENE 5.0 mph 5.0 mph 46% 0.00 in 308 W/m2
16:16 57.7 °F 38.7 °F 29.84 in ENE 5.0 mph 9.0 mph 49% 0.00 in 415 W/m2
16:22 58.5 °F 37.2 °F 29.83 in ENE 4.0 mph 5.0 mph 45% 0.00 in 301 W/m2
16:28 58.6 °F 38.4 °F 29.83 in East 5.0 mph 7.0 mph 47% 0.00 in 330 W/m2
16:36 59.2 °F 37.9 °F 29.82 in ENE 5.0 mph 6.0 mph 45% 0.00 in 278 W/m2
16:42 58.8 °F 37.5 °F 29.81 in East 4.0 mph 9.0 mph 45% 0.00 in 364 W/m2
16:48 58.7 °F 37.4 °F 29.81 in NNE 6.0 mph 9.0 mph 45% 0.00 in 264 W/m2
16:54 58.6 °F 36.7 °F 29.80 in NE 6.0 mph 11.0 mph 44% 0.00 in 223 W/m2
17:00 58.4 °F 37.1 °F 29.80 in East 7.0 mph 7.0 mph 45% 0.00 in 165 W/m2
17:06 58.2 °F 36.9 °F 29.80 in East 6.0 mph 7.0 mph 45% 0.00 in 171 W/m2
17:12 58.1 °F 37.4 °F 29.79 in ESE 6.0 mph 8.0 mph 46% 0.00 in 153 W/m2
17:18 58.1 °F 36.9 °F 29.79 in ESE 5.0 mph 10.0 mph 45% 0.00 in 213 W/m2
17:24 58.3 °F 37.0 °F 29.79 in East 6.0 mph 11.0 mph 45% 0.00 in 230 W/m2
17:30 58.5 °F 36.6 °F 29.78 in NE 6.0 mph 7.0 mph 44% 0.00 in 211 W/m2
17:36 58.6 °F 37.3 °F 29.78 in ENE 5.0 mph 7.0 mph 45% 0.00 in 181 W/m2
17:42 58.6 °F 37.9 °F 29.78 in ENE 4.0 mph 8.0 mph 46% 0.00 in 134 W/m2
17:48 58.3 °F 37.0 °F 29.78 in East 5.0 mph 8.0 mph 45% 0.00 in 121 W/m2
17:54 58.1 °F 37.4 °F 29.77 in ENE 6.0 mph 10.0 mph 46% 0.00 in 125 W/m2
18:00 58.1 °F 37.4 °F 29.77 in East 6.0 mph 13.0 mph 46% 0.00 in 181 W/m2
18:06 58.2 °F 37.5 °F 29.77 in East 5.0 mph 13.0 mph 46% 0.00 in 146 W/m2
18:12 58.2 °F 38.1 °F 29.77 in East 3.0 mph 5.0 mph 47% 0.00 in 100 W/m2
18:18 58.2 °F 38.1 °F 29.77 in ENE 3.0 mph 5.0 mph 47% 0.00 in 77 W/m2
18:24 58.0 °F 37.9 °F 29.77 in NE 3.0 mph 8.0 mph 47% 0.00 in 67 W/m2
18:30 57.8 °F 38.2 °F 29.76 in ENE 3.0 mph 3.0 mph 48% 0.00 in 63 W/m2
18:36 57.6 °F 38.0 °F 29.76 in East 3.0 mph 6.0 mph 48% 0.00 in 60 W/m2
18:42 57.6 °F 38.0 °F 29.76 in East 3.0 mph 3.0 mph 48% 0.00 in 53 W/m2
18:48 57.4 °F 38.4 °F 29.76 in East 3.0 mph 4.0 mph 49% 0.00 in 46 W/m2
18:54 57.4 °F 37.9 °F 29.75 in East 4.0 mph 5.0 mph 48% 0.00 in 33 W/m2
19:00 57.3 °F 38.3 °F 29.75 in ENE 3.0 mph 3.0 mph 49% 0.00 in 26 W/m2
19:06 57.1 °F 37.6 °F 29.75 in East 3.0 mph 8.0 mph 48% 0.00 in 21 W/m2
19:12 56.9 °F 37.4 °F 29.75 in East 4.0 mph 4.0 mph 48% 0.00 in 16 W/m2
19:18 56.7 °F 38.3 °F 29.75 in ENE 3.0 mph 5.0 mph 50% 0.00 in 9 W/m2
19:24 56.4 °F 37.5 °F 29.75 in East 3.0 mph 5.0 mph 49% 0.00 in 5 W/m2
19:30 56.2 °F 37.3 °F 29.75 in East 4.0 mph 6.0 mph 49% 0.00 in 0 W/m2
19:36 56.0 °F 37.6 °F 29.75 in ENE 4.0 mph 7.0 mph 50% 0.00 in 0 W/m2
19:42 56.0 °F 38.1 °F 29.75 in ENE 5.0 mph 9.0 mph 51% 0.00 in 0 W/m2
19:48 56.0 °F 38.1 °F 29.74 in East 4.0 mph 9.0 mph 51% 0.00 in 0 W/m2
19:54 55.9 °F 38.0 °F 29.73 in ENE 4.0 mph 8.0 mph 51% 0.00 in 0 W/m2
20:00 55.8 °F 37.9 °F 29.73 in NE 4.0 mph 6.0 mph 51% 0.00 in 0 W/m2
20:06 55.6 °F 37.7 °F 29.73 in East 3.0 mph 8.0 mph 51% 0.00 in 0 W/m2
20:12 55.6 °F 37.7 °F 29.73 in East 5.0 mph 5.0 mph 51% 0.00 in 0 W/m2
20:18 55.5 °F 38.1 °F 29.72 in ESE 5.0 mph 11.0 mph 52% 0.00 in 0 W/m2
20:24 55.5 °F 37.7 °F 29.72 in East 6.0 mph 8.0 mph 51% 0.00 in 0 W/m2
20:30 55.2 °F 38.4 °F 29.72 in ENE 5.0 mph 8.0 mph 53% 0.00 in 0 W/m2
20:36 55.1 °F 37.8 °F 29.72 in ENE 4.0 mph 8.0 mph 52% 0.00 in 0 W/m2
20:42 55.1 °F 37.8 °F 29.72 in East 5.0 mph 7.0 mph 52% 0.00 in 0 W/m2
20:48 55.0 °F 37.7 °F 29.71 in ENE 5.0 mph 8.0 mph 52% 0.00 in 0 W/m2
20:54 54.9 °F 37.6 °F 29.71 in ENE 4.0 mph 7.0 mph 52% 0.00 in 0 W/m2
21:00 54.8 °F 37.5 °F 29.71 in East 5.0 mph 5.0 mph 52% 0.00 in 0 W/m2
21:06 54.7 °F 37.4 °F 29.71 in SE 4.0 mph 5.0 mph 52% 0.00 in 0 W/m2
21:12 54.7 °F 37.4 °F 29.70 in ENE 5.0 mph 5.0 mph 52% 0.00 in 0 W/m2
21:18 54.7 °F 37.4 °F 29.70 in NE 4.0 mph 5.0 mph 52% 0.00 in 0 W/m2
21:24 54.6 °F 37.8 °F 29.70 in East 5.0 mph 5.0 mph 53% 0.00 in 0 W/m2
21:30 54.5 °F 37.7 °F 29.70 in ENE 4.0 mph 8.0 mph 53% 0.00 in 0 W/m2
21:36 54.6 °F 37.3 °F 29.70 in East 5.0 mph 10.0 mph 52% 0.00 in 0 W/m2
21:42 54.6 °F 37.3 °F 29.70 in ESE 5.0 mph 5.0 mph 52% 0.00 in 0 W/m2
21:48 54.6 °F 37.8 °F 29.70 in East 5.0 mph 5.0 mph 53% 0.00 in 0 W/m2
21:54 54.4 °F 37.6 °F 29.70 in ESE 4.0 mph 8.0 mph 53% 0.00 in 0 W/m2
22:00 54.4 °F 37.6 °F 29.69 in ENE 4.0 mph 7.0 mph 53% 0.00 in 0 W/m2
22:06 54.4 °F 37.6 °F 29.69 in SSE 4.0 mph 7.0 mph 53% 0.00 in 0 W/m2
22:12 54.3 °F 37.5 °F 29.69 in East 3.0 mph 5.0 mph 53% 0.00 in 0 W/m2
22:18 54.2 °F 37.4 °F 29.69 in East 4.0 mph 8.0 mph 53% 0.00 in 0 W/m2
22:24 54.0 °F 38.2 °F 29.69 in East 4.0 mph 7.0 mph 55% 0.00 in 0 W/m2
22:30 53.9 °F 37.6 °F 29.68 in East 4.0 mph 4.0 mph 54% 0.00 in 0 W/m2
22:36 53.7 °F 37.9 °F 29.68 in ESE 3.0 mph 4.0 mph 55% 0.00 in 0 W/m2
22:42 53.6 °F 37.8 °F 29.67 in SE 3.0 mph 3.0 mph 55% 0.00 in 0 W/m2
22:48 53.6 °F 37.8 °F 29.67 in SSE 4.0 mph 7.0 mph 55% 0.00 in 0 W/m2
22:54 53.5 °F 37.7 °F 29.67 in ESE 4.0 mph 5.0 mph 55% 0.00 in 0 W/m2
23:00 53.2 °F 37.9 °F 29.67 in ESE 3.0 mph 3.0 mph 56% 0.00 in 0 W/m2
23:06 52.9 °F 38.1 °F 29.66 in ENE 3.0 mph 4.0 mph 57% 0.00 in 0 W/m2
23:12 52.6 °F 38.2 °F 29.67 in ESE 2.0 mph 3.0 mph 58% 0.00 in 0 W/m2
23:18 52.4 °F 38.9 °F 29.67 in ENE 2.0 mph 4.0 mph 60% 0.00 in 0 W/m2
23:24 52.1 °F 39.9 °F 29.66 in ENE 3.0 mph 3.0 mph 63% 0.00 in 0 W/m2
23:32 51.2 °F 41.0 °F 29.65 in ENE 2.0 mph 5.0 mph 68% 0.00 in 0 W/m2
23:38 50.7 °F 41.6 °F 29.65 in ENE 3.0 mph 5.0 mph 71% 0.00 in 0 W/m2
23:44 50.2 °F 41.5 °F 29.65 in ENE 2.0 mph 3.0 mph 72% 0.00 in 0 W/m2
23:50 49.9 °F 41.9 °F 29.65 in ENE 1.0 mph 1.0 mph 74% 0.00 in 0 W/m2
23:56 49.3 °F 42.1 °F 29.65 in ENE 1.0 mph 3.0 mph 76% 0.06 in 0 W/m2
Country Meadow, Clay, NY, USA
Compliments of Weather Underground - 2 mb